createdAt,value
2019-04-30T00:01:25.152Z,21.43
2019-04-30T00:04:17.950Z,21.57
2019-04-30T00:06:49.431Z,22.53
2019-04-30T00:09:25.048Z,22.37
2019-04-30T00:12:00.948Z,23.00
2019-04-30T00:14:36.819Z,24.30
2019-04-30T00:17:03.195Z,23.63
2019-04-30T00:19:35.920Z,23.77
2019-04-30T00:22:07.331Z,23.10
2019-04-30T00:24:39.808Z,25.20
2019-04-30T00:27:11.572Z,25.73
2019-04-30T00:29:42.851Z,22.47
2019-04-30T00:32:15.867Z,23.47
2019-04-30T00:34:47.363Z,23.53
2019-04-30T00:37:18.973Z,22.90
2019-04-30T00:39:51.325Z,23.40
2019-04-30T00:42:24.189Z,23.30
2019-04-30T00:44:59.575Z,23.83
2019-04-30T00:47:29.184Z,24.03
2019-04-30T00:50:00.552Z,24.30
2019-04-30T00:52:33.874Z,23.57
2019-04-30T00:55:09.030Z,22.33
2019-04-30T00:57:43.712Z,22.57
2019-04-30T01:00:17.811Z,22.37
2019-04-30T01:03:07.857Z,23.07
2019-04-30T01:05:39.694Z,21.70
2019-04-30T01:08:09.966Z,21.27
2019-04-30T01:10:41.186Z,22.93
2019-04-30T01:13:12.394Z,23.73
2019-04-30T01:15:48.227Z,22.47
2019-04-30T01:18:17.027Z,23.30
2019-04-30T01:20:48.924Z,23.63
2019-04-30T01:23:20.379Z,24.30
2019-04-30T01:25:52.057Z,22.87
2019-04-30T01:28:24.419Z,24.00
2019-04-30T01:30:58.752Z,23.13
2019-04-30T01:33:34.587Z,23.73
2019-04-30T01:36:08.217Z,25.30
2019-04-30T01:38:35.493Z,22.13
2019-04-30T01:41:06.773Z,23.63
2019-04-30T01:43:38.582Z,24.57
2019-04-30T01:46:13.861Z,24.97
2019-04-30T01:48:43.612Z,24.40
2019-04-30T01:51:20.458Z,25.17
2019-04-30T01:53:49.001Z,24.87
2019-04-30T01:56:29.906Z,24.40
2019-04-30T01:59:19.950Z,26.00
2019-04-30T02:01:51.602Z,24.00
2019-04-30T02:04:23.082Z,24.57
2019-04-30T02:06:54.348Z,25.83
2019-04-30T02:09:24.313Z,25.23
2019-04-30T02:11:55.763Z,25.87
2019-04-30T02:14:28.650Z,25.43
2019-04-30T02:16:59.924Z,26.57
2019-04-30T02:19:31.302Z,25.40
2019-04-30T02:22:02.653Z,25.77
2019-04-30T02:24:33.857Z,24.67
2019-04-30T02:27:05.277Z,24.93
2019-04-30T02:29:36.845Z,25.47
2019-04-30T02:32:10.106Z,27.03
2019-04-30T02:34:49.761Z,26.20
2019-04-30T02:37:24.198Z,25.43
2019-04-30T02:39:55.585Z,26.43
2019-04-30T02:42:29.695Z,28.83
2019-04-30T02:45:03.770Z,29.03
2019-04-30T02:47:36.860Z,29.77
2019-04-30T02:50:15.265Z,28.77
2019-04-30T02:52:44.636Z,29.97
2019-04-30T02:55:21.277Z,32.37
2019-04-30T02:57:52.367Z,31.90
2019-04-30T03:00:23.912Z,31.30
2019-04-30T03:02:55.382Z,29.93
2019-04-30T03:05:26.717Z,31.47
2019-04-30T03:08:00.476Z,30.30
2019-04-30T03:10:30.827Z,32.60
2019-04-30T03:13:01.933Z,32.30
2019-04-30T03:15:33.175Z,31.87
2019-04-30T03:18:11.330Z,31.67
2019-04-30T03:21:04.538Z,32.37
2019-04-30T03:23:35.744Z,32.33
2019-04-30T03:26:09.710Z,31.67
2019-04-30T03:28:39.924Z,32.37
2019-04-30T03:31:12.814Z,32.00
2019-04-30T03:33:44.341Z,29.87
2019-04-30T03:36:15.531Z,31.73
2019-04-30T03:38:46.811Z,31.77
2019-04-30T03:41:19.845Z,29.73
2019-04-30T03:43:51.281Z,32.77
2019-04-30T03:46:22.830Z,31.27
2019-04-30T03:48:54.146Z,31.90
2019-04-30T03:51:25.600Z,31.43
2019-04-30T03:53:59.560Z,32.17
2019-04-30T03:56:30.578Z,33.77
2019-04-30T03:59:01.754Z,34.33
2019-04-30T04:01:42.915Z,33.80
2019-04-30T04:04:42.418Z,33.13
2019-04-30T04:07:22.775Z,32.47
2019-04-30T04:10:03.120Z,33.47
2019-04-30T04:12:34.250Z,32.87
2019-04-30T04:15:05.653Z,32.70
2019-04-30T04:17:39.660Z,30.77
2019-04-30T04:20:10.918Z,31.00
2019-04-30T04:22:42.214Z,31.47
2019-04-30T04:25:13.927Z,29.13
2019-04-30T04:27:45.277Z,29.57
2019-04-30T04:30:20.010Z,31.03
2019-04-30T04:32:50.994Z,30.80
2019-04-30T04:35:22.264Z,31.90
2019-04-30T04:37:53.627Z,30.33
2019-04-30T04:40:24.861Z,30.57
2019-04-30T04:42:56.003Z,31.90
2019-04-30T04:45:27.204Z,30.27
2019-04-30T04:48:00.095Z,32.93
2019-04-30T04:50:31.226Z,31.50
2019-04-30T04:53:02.764Z,30.33
2019-04-30T04:55:34.054Z,31.00
2019-04-30T04:58:05.254Z,31.33
2019-04-30T05:00:39.076Z,32.07
2019-04-30T05:03:15.896Z,31.07
2019-04-30T05:05:49.777Z,32.73
2019-04-30T05:08:20.801Z,30.87
2019-04-30T05:10:52.627Z,32.73
2019-04-30T05:13:24.093Z,32.27
2019-04-30T05:15:56.068Z,31.10
2019-04-30T05:18:29.135Z,33.57
2019-04-30T05:21:00.760Z,33.30
2019-04-30T05:23:31.985Z,31.33
2019-04-30T05:26:03.269Z,33.70
2019-04-30T05:28:34.550Z,33.77
2019-04-30T05:31:05.957Z,34.27
2019-04-30T05:33:38.942Z,33.27
2019-04-30T05:36:10.368Z,35.53
2019-04-30T05:38:41.585Z,33.23
2019-04-30T05:41:13.172Z,34.77
2019-04-30T05:43:44.629Z,34.77
2019-04-30T05:46:15.829Z,36.50
2019-04-30T05:48:49.347Z,36.60
2019-04-30T05:51:21.307Z,34.97
2019-04-30T05:53:52.630Z,37.47
2019-04-30T05:56:23.761Z,38.23
2019-04-30T05:58:55.333Z,38.80
2019-04-30T06:01:26.603Z,37.73
2019-04-30T06:03:59.453Z,37.53
2019-04-30T06:06:33.578Z,37.97
2019-04-30T06:09:18.757Z,39.23
2019-04-30T06:12:11.270Z,39.27
2019-04-30T06:14:51.197Z,36.47
2019-04-30T06:17:20.678Z,36.00
2019-04-30T06:19:52.024Z,34.37
2019-04-30T06:22:23.978Z,37.17
2019-04-30T06:24:55.315Z,37.20
2019-04-30T06:27:29.017Z,38.67
2019-04-30T06:30:00.135Z,38.83
2019-04-30T06:32:31.725Z,38.37
2019-04-30T06:35:03.376Z,38.20
2019-04-30T06:37:34.648Z,35.83
2019-04-30T06:40:06.434Z,36.40
2019-04-30T06:42:39.288Z,36.10
2019-04-30T06:45:10.955Z,37.60
2019-04-30T06:47:43.615Z,37.63
2019-04-30T06:50:15.609Z,31.50
2019-04-30T06:52:56.633Z,34.03
2019-04-30T06:55:20.037Z,31.20
2019-04-30T06:57:51.597Z,31.50
2019-04-30T07:00:35.703Z,29.47
2019-04-30T07:03:09.630Z,33.57
2019-04-30T07:05:41.043Z,28.07
2019-04-30T07:08:37.325Z,29.87
2019-04-30T07:11:26.945Z,28.73
2019-04-30T07:14:00.058Z,25.40
2019-04-30T07:16:31.738Z,25.43
2019-04-30T07:19:03.264Z,24.87
2019-04-30T07:21:36.467Z,25.30
2019-04-30T07:24:09.378Z,25.67
2019-04-30T07:26:40.735Z,25.83
2019-04-30T07:29:12.501Z,26.57
2019-04-30T07:31:43.700Z,24.20
2019-04-30T07:34:14.996Z,22.20
2019-04-30T07:36:49.300Z,23.27
2019-04-30T07:39:23.531Z,24.23
2019-04-30T07:41:52.425Z,26.10
2019-04-30T07:44:35.475Z,28.20
2019-04-30T07:46:56.685Z,28.00
2019-04-30T07:49:46.159Z,28.07
2019-04-30T07:52:01.920Z,26.50
2019-04-30T07:54:33.490Z,29.53
2019-04-30T07:57:04.838Z,30.93
2019-04-30T07:59:36.032Z,27.43
2019-04-30T08:02:14.298Z,27.17
2019-04-30T08:05:05.807Z,29.73
2019-04-30T08:07:38.937Z,27.50
2019-04-30T08:10:10.321Z,31.97
2019-04-30T08:12:43.210Z,30.33
2019-04-30T08:15:14.501Z,32.60
2019-04-30T08:17:46.053Z,31.37
2019-04-30T08:20:19.481Z,32.00
2019-04-30T08:22:50.184Z,31.53
2019-04-30T08:25:22.028Z,32.63
2019-04-30T08:27:53.410Z,31.27
2019-04-30T08:30:27.014Z,30.30
2019-04-30T08:32:59.557Z,31.63
2019-04-30T08:35:30.569Z,27.70
2019-04-30T08:38:02.150Z,30.67
2019-04-30T08:40:33.757Z,33.20
2019-04-30T08:43:05.387Z,28.27
2019-04-30T08:45:38.560Z,29.07
2019-04-30T08:48:09.972Z,27.60
2019-04-30T08:50:41.348Z,28.23
2019-04-30T08:53:12.612Z,27.98
2019-04-30T08:55:43.842Z,27.45
2019-04-30T08:58:15.351Z,28.12
2019-04-30T09:00:48.468Z,25.97
2019-04-30T09:03:19.684Z,31.60
2019-04-30T09:06:22.223Z,26.55
2019-04-30T09:08:56.553Z,25.85
2019-04-30T09:11:35.326Z,28.38
2019-04-30T09:14:00.905Z,27.80
2019-04-30T09:16:32.189Z,32.50
2019-04-30T09:19:03.450Z,27.03
2019-04-30T09:21:34.708Z,27.27
2019-04-30T09:24:06.175Z,26.10
2019-04-30T09:26:39.174Z,24.35
2019-04-30T09:29:10.567Z,25.55
2019-04-30T09:31:42.012Z,25.60
2019-04-30T09:34:17.071Z,24.43
2019-04-30T09:36:46.716Z,23.45
2019-04-30T09:39:19.922Z,21.87
2019-04-30T09:41:50.862Z,21.48
2019-04-30T09:44:22.135Z,22.77
2019-04-30T09:46:53.248Z,21.93
2019-04-30T09:49:24.445Z,21.57
2019-04-30T09:51:55.684Z,24.47
2019-04-30T09:54:28.801Z,26.48
2019-04-30T09:56:59.722Z,24.85
2019-04-30T09:59:31.006Z,24.72
2019-04-30T10:02:02.582Z,24.02
2019-04-30T10:04:34.775Z,23.87
2019-04-30T10:07:06.419Z,23.35
2019-04-30T10:09:37.758Z,24.85
2019-04-30T10:12:16.404Z,22.65
2019-04-30T10:14:49.467Z,21.82
2019-04-30T10:17:35.849Z,20.10
2019-04-30T10:20:12.272Z,20.55
2019-04-30T10:22:43.639Z,19.45
2019-04-30T10:25:15.271Z,21.57
2019-04-30T10:27:46.738Z,19.60
2019-04-30T10:30:21.333Z,19.35
2019-04-30T10:32:52.547Z,20.43
2019-04-30T10:35:23.912Z,21.30
2019-04-30T10:37:55.108Z,21.33
2019-04-30T10:40:28.574Z,20.12
2019-04-30T10:43:00.027Z,19.45
2019-04-30T10:45:31.825Z,19.50
2019-04-30T10:48:03.363Z,19.92
2019-04-30T10:50:34.708Z,20.00
2019-04-30T10:53:06.091Z,20.92
2019-04-30T10:55:38.764Z,20.20
2019-04-30T10:58:10.665Z,18.60
2019-04-30T11:00:43.271Z,20.60
2019-04-30T11:03:19.932Z,20.45
2019-04-30T11:05:48.805Z,20.50
2019-04-30T11:08:21.639Z,21.30
2019-04-30T11:10:52.950Z,19.70
2019-04-30T11:13:24.258Z,20.23
2019-04-30T11:15:55.503Z,18.98
2019-04-30T11:18:27.008Z,19.30
2019-04-30T11:20:59.653Z,18.03
2019-04-30T11:23:31.586Z,19.33
2019-04-30T11:26:03.671Z,18.77
2019-04-30T11:28:35.857Z,18.53
2019-04-30T11:31:25.121Z,21.17
2019-04-30T11:33:57.887Z,19.73
2019-04-30T11:36:29.307Z,18.57
2019-04-30T11:39:00.682Z,19.20
2019-04-30T11:41:33.318Z,18.60
2019-04-30T11:44:05.370Z,19.00
2019-04-30T11:47:09.538Z,19.53
2019-04-30T11:49:40.827Z,19.00
2019-04-30T11:52:12.404Z,16.97
2019-04-30T11:54:51.311Z,17.60
2019-04-30T11:57:18.597Z,18.13
2019-04-30T11:59:49.927Z,17.67
2019-04-30T12:02:29.291Z,17.57
2019-04-30T12:05:01.189Z,18.53
2019-04-30T12:07:51.372Z,17.50
2019-04-30T12:10:33.085Z,17.77
2019-04-30T12:13:04.438Z,17.90
2019-04-30T12:15:35.798Z,17.30
2019-04-30T12:18:07.171Z,17.40
2019-04-30T12:20:38.436Z,16.53
2019-04-30T12:23:11.738Z,17.67
2019-04-30T12:25:42.977Z,18.83
2019-04-30T12:28:14.336Z,16.93
2019-04-30T12:30:45.668Z,17.33
2019-04-30T12:33:18.998Z,16.60
2019-04-30T12:35:51.332Z,17.13
2019-04-30T12:38:23.211Z,17.07
2019-04-30T12:40:54.906Z,16.20
2019-04-30T12:43:26.455Z,16.20
2019-04-30T12:46:03.308Z,16.90
2019-04-30T12:48:40.273Z,16.93
2019-04-30T12:51:21.304Z,17.80
2019-04-30T12:53:57.037Z,16.67
2019-04-30T12:56:40.559Z,16.07
2019-04-30T12:59:12.227Z,15.10
2019-04-30T13:01:43.521Z,14.47
2019-04-30T13:04:14.787Z,17.30
2019-04-30T13:06:48.384Z,17.60
2019-04-30T13:09:20.556Z,16.50
2019-04-30T13:11:52.584Z,17.80
2019-04-30T13:14:24.983Z,16.43
2019-04-30T13:16:58.933Z,17.43
2019-04-30T13:19:30.011Z,17.00
2019-04-30T13:22:01.951Z,16.63
2019-04-30T13:24:33.688Z,15.90
2019-04-30T13:27:05.103Z,16.40
2019-04-30T13:29:55.385Z,16.93
2019-04-30T13:32:32.199Z,17.23
2019-04-30T13:35:01.854Z,18.00
2019-04-30T13:37:42.593Z,17.80
2019-04-30T13:40:32.047Z,17.67
2019-04-30T13:43:03.447Z,16.40
2019-04-30T13:45:35.247Z,16.40
2019-04-30T13:48:08.816Z,16.13
2019-04-30T13:50:40.210Z,17.10
2019-04-30T13:53:11.797Z,18.67
2019-04-30T13:55:45.891Z,19.70
2019-04-30T13:58:16.680Z,18.87
2019-04-30T14:00:49.442Z,20.40
2019-04-30T14:03:34.773Z,20.23
2019-04-30T14:06:09.097Z,20.40
2019-04-30T14:08:45.052Z,20.07
2019-04-30T14:11:16.681Z,20.40
2019-04-30T14:13:48.227Z,19.10
2019-04-30T14:16:20.068Z,18.40
2019-04-30T14:18:51.654Z,19.40
2019-04-30T14:21:33.151Z,18.93
2019-04-30T14:23:56.225Z,19.93
2019-04-30T14:26:29.235Z,19.63
2019-04-30T14:29:00.893Z,21.27
2019-04-30T14:31:32.124Z,19.03
2019-04-30T14:34:03.456Z,21.37
2019-04-30T14:36:34.785Z,21.83
2019-04-30T14:39:14.457Z,21.97
2019-04-30T14:41:42.348Z,20.67
2019-04-30T14:44:20.027Z,19.30
2019-04-30T14:47:04.958Z,20.30
2019-04-30T14:50:01.596Z,20.53
2019-04-30T14:52:27.061Z,21.87
2019-04-30T14:55:18.766Z,22.07
2019-04-30T14:58:10.153Z,21.80
2019-04-30T15:00:52.076Z,22.20
2019-04-30T15:03:25.708Z,22.20
2019-04-30T15:05:58.861Z,21.87
2019-04-30T15:08:30.138Z,21.83
2019-04-30T15:11:01.413Z,20.87
2019-04-30T15:13:32.775Z,20.43
2019-04-30T15:16:04.064Z,20.50
2019-04-30T15:18:35.377Z,20.97
2019-04-30T15:21:06.803Z,22.33
2019-04-30T15:23:58.605Z,20.93
2019-04-30T15:26:25.068Z,21.87
2019-04-30T15:28:57.528Z,20.33
2019-04-30T15:31:29.703Z,19.87
2019-04-30T15:34:06.630Z,19.03
2019-04-30T15:36:39.240Z,21.60
2019-04-30T15:39:33.747Z,20.97
2019-04-30T15:42:05.637Z,19.80
2019-04-30T15:44:42.621Z,21.30
2019-04-30T15:47:10.313Z,20.83
2019-04-30T15:49:41.627Z,22.27
2019-04-30T15:52:12.976Z,22.40
2019-04-30T15:54:44.102Z,22.20
2019-04-30T15:57:15.424Z,21.40
2019-04-30T15:59:47.015Z,21.70
2019-04-30T16:02:55.679Z,22.87
2019-04-30T16:05:27.806Z,21.97
2019-04-30T16:08:21.192Z,21.57
2019-04-30T16:11:01.354Z,22.60
2019-04-30T16:13:39.474Z,21.27
2019-04-30T16:16:13.128Z,22.00
2019-04-30T16:18:49.421Z,23.13
2019-04-30T16:21:20.984Z,23.87
2019-04-30T16:23:52.585Z,22.93
2019-04-30T16:26:24.192Z,24.03
2019-04-30T16:28:55.429Z,23.50
2019-04-30T16:31:26.795Z,25.17
2019-04-30T16:33:58.104Z,24.83
2019-04-30T16:36:29.322Z,22.33
2019-04-30T16:39:00.907Z,22.67
2019-04-30T16:41:32.113Z,22.10
2019-04-30T16:44:03.369Z,22.17
2019-04-30T16:46:34.655Z,21.87
2019-04-30T16:49:05.953Z,21.90
2019-04-30T16:51:38.591Z,21.07
2019-04-30T16:54:10.397Z,22.37
2019-04-30T16:56:41.715Z,22.03
2019-04-30T16:59:15.575Z,21.90
2019-04-30T17:01:57.613Z,22.10
2019-04-30T17:04:26.410Z,21.87
2019-04-30T17:07:21.066Z,21.30
2019-04-30T17:10:02.510Z,21.33
2019-04-30T17:12:43.923Z,21.60
2019-04-30T17:15:21.431Z,20.87
2019-04-30T17:17:52.621Z,22.33
2019-04-30T17:20:23.890Z,21.27
2019-04-30T17:22:55.082Z,21.17
2019-04-30T17:25:26.582Z,19.63
2019-04-30T17:28:01.111Z,20.00
2019-04-30T17:30:30.801Z,20.23
2019-04-30T17:33:02.407Z,21.53
2019-04-30T17:35:33.682Z,20.60
2019-04-30T17:38:05.070Z,20.80
2019-04-30T17:40:36.413Z,21.37
2019-04-30T17:43:07.664Z,21.47
2019-04-30T17:45:39.274Z,21.07
2019-04-30T17:48:11.334Z,23.07
2019-04-30T17:50:42.741Z,22.93
2019-04-30T17:53:13.846Z,22.77
2019-04-30T17:55:45.283Z,22.03
2019-04-30T17:58:16.820Z,22.03
2019-04-30T18:00:52.233Z,21.80
2019-04-30T18:03:23.495Z,23.40
2019-04-30T18:05:54.908Z,22.60
2019-04-30T18:08:26.143Z,23.87
2019-04-30T18:10:57.512Z,23.83
2019-04-30T18:13:28.915Z,23.83
2019-04-30T18:16:00.443Z,24.53
2019-04-30T18:18:45.277Z,24.80
2019-04-30T18:21:26.236Z,25.43
2019-04-30T18:24:16.330Z,26.50
2019-04-30T18:26:52.341Z,23.67
2019-04-30T18:29:23.670Z,25.87
2019-04-30T18:31:54.993Z,23.27
2019-04-30T18:34:26.352Z,24.83
2019-04-30T18:36:59.322Z,24.10
2019-04-30T18:39:30.792Z,25.73
2019-04-30T18:42:02.133Z,25.37
2019-04-30T18:44:33.377Z,24.37
2019-04-30T18:47:04.654Z,24.27
2019-04-30T18:49:35.839Z,24.37
2019-04-30T18:52:08.996Z,25.70
2019-04-30T18:54:40.686Z,25.60
2019-04-30T18:57:12.024Z,24.73
2019-04-30T18:59:43.329Z,24.40
2019-04-30T19:02:15.351Z,25.50
2019-04-30T19:04:46.615Z,26.17
2019-04-30T19:07:41.751Z,27.83
2019-04-30T19:10:26.430Z,28.43
2019-04-30T19:13:15.465Z,27.07
2019-04-30T19:16:21.935Z,43.17
2019-04-30T19:19:00.690Z,29.00
2019-04-30T19:21:31.589Z,28.13
2019-04-30T19:24:02.845Z,30.53
2019-04-30T19:26:34.455Z,30.07
2019-04-30T19:29:07.547Z,30.43
2019-04-30T19:31:39.489Z,28.33
2019-04-30T19:34:10.948Z,24.73
2019-04-30T19:36:42.251Z,27.17
2019-04-30T19:39:13.470Z,26.70
2019-04-30T19:41:44.999Z,27.00
2019-04-30T19:44:20.647Z,28.10
2019-04-30T19:46:50.449Z,27.87
2019-04-30T19:49:21.702Z,28.20
2019-04-30T19:52:05.609Z,27.50
2019-04-30T19:54:25.962Z,28.40
2019-04-30T19:56:58.597Z,26.83
2019-04-30T19:59:29.919Z,29.20
2019-04-30T20:02:01.207Z,29.20
2019-04-30T20:04:36.239Z,28.57
2019-04-30T20:07:05.923Z,29.73
2019-04-30T20:09:37.089Z,28.70
2019-04-30T20:12:10.563Z,28.53
2019-04-30T20:14:41.634Z,30.27
2019-04-30T20:17:13.283Z,29.50
2019-04-30T20:19:44.598Z,29.27
2019-04-30T20:22:16.537Z,28.67
2019-04-30T20:24:49.186Z,28.97
2019-04-30T20:27:20.423Z,29.53
2019-04-30T20:29:51.890Z,31.03
2019-04-30T20:32:33.869Z,31.43
2019-04-30T20:34:55.988Z,28.50
2019-04-30T20:37:29.399Z,27.90
2019-04-30T20:40:08.605Z,27.47
2019-04-30T20:42:40.161Z,27.63
2019-04-30T20:45:11.512Z,29.33
2019-04-30T20:47:42.809Z,29.23
2019-04-30T20:50:14.109Z,29.13
2019-04-30T20:52:45.222Z,29.40
2019-04-30T20:55:16.573Z,29.50
2019-04-30T20:57:49.482Z,29.00
2019-04-30T21:00:21.146Z,28.90
2019-04-30T21:02:52.315Z,30.93
2019-04-30T21:05:23.582Z,29.87
2019-04-30T21:07:55.089Z,29.60
2019-04-30T21:10:26.384Z,30.07
2019-04-30T21:12:57.479Z,30.63
2019-04-30T21:15:29.708Z,29.20
2019-04-30T21:18:01.283Z,29.17
2019-04-30T21:20:32.470Z,29.07
2019-04-30T21:23:03.687Z,29.93
2019-04-30T21:25:34.879Z,30.47
2019-04-30T21:28:06.219Z,30.17
2019-04-30T21:30:37.930Z,31.30
2019-04-30T21:33:31.049Z,30.93
2019-04-30T21:36:09.096Z,30.80
2019-04-30T21:38:40.382Z,32.13
2019-04-30T21:41:11.850Z,31.43
2019-04-30T21:43:43.323Z,32.07
2019-04-30T21:46:14.818Z,30.90
2019-04-30T21:48:46.080Z,30.00
2019-04-30T21:51:19.250Z,31.00
2019-04-30T21:53:50.492Z,33.03
2019-04-30T21:56:22.426Z,30.90
2019-04-30T21:58:53.695Z,32.00
2019-04-30T22:01:26.133Z,30.33
2019-04-30T22:03:57.458Z,31.33
2019-04-30T22:06:29.621Z,30.43
2019-04-30T22:09:01.006Z,31.17
2019-04-30T22:11:32.549Z,30.77
2019-04-30T22:14:03.867Z,31.53
2019-04-30T22:16:35.328Z,29.70
2019-04-30T22:19:06.583Z,29.27
2019-04-30T22:21:39.554Z,28.37
2019-04-30T22:24:10.709Z,30.77
2019-04-30T22:26:41.820Z,30.40
2019-04-30T22:29:13.102Z,28.63
2019-04-30T22:31:44.320Z,28.43
2019-04-30T22:34:15.902Z,30.03
2019-04-30T22:36:48.933Z,31.20
2019-04-30T22:39:41.980Z,30.03
2019-04-30T22:42:36.995Z,31.07
2019-04-30T22:45:22.637Z,29.90
2019-04-30T22:47:54.226Z,30.37
2019-04-30T22:50:25.299Z,30.97
2019-04-30T22:52:57.036Z,32.07
2019-04-30T22:55:28.188Z,30.07
2019-04-30T22:57:59.373Z,30.97
2019-04-30T23:00:36.648Z,30.20
2019-04-30T23:03:27.072Z,31.50
2019-04-30T23:05:58.877Z,30.40
2019-04-30T23:08:30.298Z,29.60
2019-04-30T23:11:01.554Z,30.80
2019-04-30T23:13:32.875Z,32.60
2019-04-30T23:16:04.902Z,32.87
2019-04-30T23:18:36.522Z,34.13
2019-04-30T23:21:07.759Z,32.07
2019-04-30T23:23:38.965Z,31.67
2019-04-30T23:26:10.350Z,32.60
2019-04-30T23:28:42.326Z,31.97
2019-04-30T23:31:13.860Z,31.93
2019-04-30T23:33:45.044Z,30.43
2019-04-30T23:36:16.132Z,32.00
2019-04-30T23:38:47.352Z,30.63
2019-04-30T23:41:18.626Z,33.00
2019-04-30T23:43:50.081Z,33.63
2019-04-30T23:46:21.335Z,32.30
2019-04-30T23:48:52.546Z,29.80
2019-04-30T23:51:23.806Z,30.57
2019-04-30T23:53:55.302Z,29.20
2019-04-30T23:56:26.545Z,31.70
2019-04-30T23:58:58.094Z,30.53
